Time;durP1;ratioP1;P1;durP2;ratioP2;P2;SDS_P1;SDS_P2;PMS_P1;PMS_P2;Temp;Humidity;BMP_temperature;BMP_pressure;BME280_temperature;BME280_humidity;BME280_pressure;Samples;Min_cycle;Max_cycle;Signal;HPM_P1;HPM_P2
2021/09/16 00:01:25;;;;;;;5.70;3.08;;;13.00;99.90;;;;;;4195309;28;20369;-71
2021/09/16 00:03:26;;;;;;;8.43;3.40;;;13.10;99.90;;;;;;4197422;28;20440;-71
2021/09/16 00:05:26;;;;;;;7.50;3.70;;;13.20;99.90;;;;;;4195582;28;20032;-71
2021/09/16 00:07:27;;;;;;;10.88;3.08;;;13.30;99.90;;;;;;4197153;28;20028;-72
2021/09/16 00:09:28;;;;;;;4.90;2.65;;;13.30;99.90;;;;;;4193368;28;20033;-71
2021/09/16 00:11:29;;;;;;;6.60;2.95;;;13.30;99.90;;;;;;4194118;28;20483;-70
2021/09/16 00:13:30;;;;;;;5.47;2.67;;;13.40;99.90;;;;;;4193566;28;20030;-70
2021/09/16 00:15:30;;;;;;;8.15;3.35;;;13.50;99.90;;;;;;4191557;28;20521;-71
2021/09/16 00:17:31;;;;;;;5.78;2.90;;;13.50;99.90;;;;;;4195879;28;20029;-71
2021/09/16 00:19:31;;;;;;;9.20;3.03;;;13.60;99.90;;;;;;4200696;28;20037;-70
2021/09/16 00:21:32;;;;;;;6.72;2.58;;;13.70;99.90;;;;;;4196985;28;20031;-70
2021/09/16 00:23:32;;;;;;;14.40;3.15;;;13.80;99.90;;;;;;4197241;28;20033;-69
2021/09/16 00:25:33;;;;;;;6.47;3.15;;;13.90;99.90;;;;;;4187488;28;20036;-71
2021/09/16 00:27:34;;;;;;;5.00;2.78;;;14.00;99.90;;;;;;4192366;28;20025;-70
2021/09/16 00:29:34;;;;;;;7.38;3.35;;;14.10;99.90;;;;;;4191647;28;20443;-70
2021/09/16 00:31:35;;;;;;;11.38;2.58;;;14.10;99.90;;;;;;4193374;28;20024;-71
2021/09/16 00:33:36;;;;;;;7.50;3.67;;;14.20;99.90;;;;;;4195701;28;20033;-71
2021/09/16 00:35:37;;;;;;;5.63;3.10;;;14.20;99.90;;;;;;4187249;28;20043;-71
2021/09/16 00:37:37;;;;;;;8.48;2.97;;;14.30;99.90;;;;;;4199986;28;20032;-71
2021/09/16 00:39:38;;;;;;;4.72;2.78;;;14.50;99.90;;;;;;4196601;28;20047;-71
2021/09/16 00:41:39;;;;;;;6.97;2.58;;;14.60;99.90;;;;;;4192493;28;20108;-71
2021/09/16 00:43:40;;;;;;;5.65;3.25;;;14.60;99.90;;;;;;4191345;28;20045;-71
2021/09/16 00:45:41;;;;;;;4.13;3.20;;;14.50;99.90;;;;;;4189447;28;20384;-72
2021/09/16 00:47:48;;;;;;;6.22;2.88;;;14.40;99.90;;;;;;4193471;28;20060;-71
2021/09/16 00:49:49;;;;;;;10.82;3.63;;;14.30;99.90;;;;;;4191392;28;20032;-71
2021/09/16 00:51:51;;;;;;;4.20;3.10;;;14.20;99.90;;;;;;4194000;28;20029;-71
2021/09/16 00:53:54;;;;;;;7.63;3.20;;;14.10;99.90;;;;;;4195554;28;20037;-71
2021/09/16 00:55:56;;;;;;;13.05;3.90;;;13.90;99.90;;;;;;4197397;28;20036;-72
2021/09/16 00:58:01;;;;;;;9.13;3.38;;;13.80;99.90;;;;;;4195143;28;20032;-71
2021/09/16 01:00:06;;;;;;;13.20;4.30;;;13.70;99.90;;;;;;4195620;28;20040;-71
2021/09/16 01:02:07;;;;;;;6.75;3.30;;;13.60;99.90;;;;;;4199646;28;20032;-71
2021/09/16 01:04:08;;;;;;;7.28;3.22;;;13.50;99.90;;;;;;4194512;28;20058;-71
2021/09/16 01:06:08;;;;;;;9.10;3.30;;;13.40;99.90;;;;;;4193592;28;20519;-71
2021/09/16 01:08:09;;;;;;;8.77;2.70;;;13.30;99.90;;;;;;4198339;28;20479;-71
2021/09/16 01:10:10;;;;;;;7.10;3.10;;;13.30;99.90;;;;;;4195172;28;20036;-70
2021/09/16 01:12:11;;;;;;;5.85;2.92;;;13.30;99.90;;;;;;4199104;28;20037;-70
2021/09/16 01:14:21;;;;;;;8.55;3.63;;;13.20;99.90;;;;;;4196651;28;20043;-71
2021/09/16 01:16:22;;;;;;;5.75;3.72;;;13.10;99.90;;;;;;4190904;28;20423;-71
2021/09/16 01:18:23;;;;;;;8.20;3.08;;;13.10;99.90;;;;;;4190656;28;20029;-72
2021/09/16 01:20:24;;;;;;;14.10;4.32;;;13.00;99.90;;;;;;4191964;28;20031;-71
2021/09/16 01:22:25;;;;;;;11.80;5.22;;;12.90;99.90;;;;;;4198027;28;20041;-71
2021/09/16 01:24:26;;;;;;;7.20;4.18;;;12.90;99.90;;;;;;4197507;28;20037;-71
2021/09/16 01:26:27;;;;;;;9.23;4.72;;;12.80;99.90;;;;;;4195427;28;20024;-71
2021/09/16 01:28:28;;;;;;;7.72;4.43;;;12.80;99.90;;;;;;4196593;28;20032;-71
2021/09/16 01:30:29;;;;;;;9.23;4.45;;;12.80;99.90;;;;;;4194958;28;20178;-71
2021/09/16 01:32:30;;;;;;;11.88;4.18;;;12.80;99.90;;;;;;4196430;28;20036;-71
2021/09/16 01:34:31;;;;;;;10.70;5.70;;;12.80;99.90;;;;;;4198685;28;20029;-72
2021/09/16 01:36:32;;;;;;;8.23;3.80;;;12.80;99.90;;;;;;4195028;28;20530;-71
2021/09/16 01:38:33;;;;;;;5.32;3.78;;;12.80;99.90;;;;;;4196307;28;20163;-71
2021/09/16 01:40:33;;;;;;;8.57;4.65;;;12.80;99.90;;;;;;4197715;28;20406;-71
2021/09/16 01:42:34;;;;;;;9.20;4.20;;;12.80;99.90;;;;;;4195983;28;20029;-71
2021/09/16 01:44:34;;;;;;;10.38;4.10;;;12.70;99.90;;;;;;4195660;28;20040;-71
2021/09/16 01:46:35;;;;;;;10.75;4.07;;;12.70;99.90;;;;;;4197063;28;20044;-72
2021/09/16 01:48:36;;;;;;;7.88;4.05;;;12.70;99.90;;;;;;4200976;28;20485;-71
2021/09/16 01:50:37;;;;;;;7.20;4.15;;;12.70;99.90;;;;;;4190852;28;20093;-71
2021/09/16 01:52:37;;;;;;;17.02;3.80;;;12.70;99.90;;;;;;4193845;28;20041;-71
2021/09/16 01:54:38;;;;;;;9.70;4.82;;;12.70;99.90;;;;;;4194651;28;20028;-71
2021/09/16 01:56:39;;;;;;;7.30;4.32;;;12.60;99.90;;;;;;4190988;28;20029;-72
2021/09/16 01:58:39;;;;;;;8.35;4.32;;;12.70;99.90;;;;;;4193614;28;20033;-71
2021/09/16 02:00:40;;;;;;;15.43;4.05;;;12.80;99.90;;;;;;4196391;28;20068;-72
2021/09/16 02:02:41;;;;;;;8.43;3.75;;;12.90;99.90;;;;;;4191183;28;20441;-71
2021/09/16 02:04:42;;;;;;;7.75;4.00;;;13.00;99.90;;;;;;4201437;28;20047;-71
2021/09/16 02:06:43;;;;;;;8.38;4.25;;;13.00;99.90;;;;;;4199665;28;20496;-72
2021/09/16 02:08:43;;;;;;;8.77;4.43;;;13.10;99.90;;;;;;4195620;28;20483;-71
2021/09/16 02:10:44;;;;;;;7.75;3.47;;;13.10;99.90;;;;;;4197034;28;20081;-71
2021/09/16 02:12:45;;;;;;;10.38;3.28;;;13.20;99.90;;;;;;4198208;28;20041;-71
2021/09/16 02:14:46;;;;;;;12.65;3.33;;;13.20;99.90;;;;;;4196182;28;20060;-71
2021/09/16 02:16:47;;;;;;;8.63;3.40;;;13.30;99.90;;;;;;4193848;28;20048;-71
2021/09/16 02:18:47;;;;;;;7.60;3.75;;;13.40;99.90;;;;;;4195209;28;20512;-71
2021/09/16 02:20:48;;;;;;;6.88;2.90;;;13.50;99.90;;;;;;4193012;28;20039;-72
2021/09/16 02:22:49;;;;;;;9.40;4.10;;;13.50;99.90;;;;;;4195475;28;20028;-72
2021/09/16 02:24:49;;;;;;;8.15;3.38;;;13.50;99.90;;;;;;4197768;28;20085;-71
2021/09/16 02:26:50;;;;;;;10.10;3.78;;;13.60;99.90;;;;;;4194649;28;20071;-72
2021/09/16 02:28:51;;;;;;;6.40;3.42;;;13.60;99.90;;;;;;4192557;28;20066;-71
2021/09/16 02:30:51;;;;;;;8.98;3.83;;;13.60;99.90;;;;;;4192308;28;20504;-72
2021/09/16 02:32:52;;;;;;;8.38;3.03;;;13.60;99.90;;;;;;4194638;28;20047;-71
2021/09/16 02:34:53;;;;;;;8.13;3.13;;;13.60;99.90;;;;;;4191014;28;20414;-72
2021/09/16 02:36:53;;;;;;;7.40;2.80;;;13.70;99.90;;;;;;4199182;28;20024;-72
2021/09/16 02:38:54;;;;;;;5.13;3.28;;;13.80;99.90;;;;;;4198534;28;20044;-71
2021/09/16 02:40:54;;;;;;;12.77;4.03;;;13.90;99.90;;;;;;4191122;28;20042;-72
2021/09/16 02:42:55;;;;;;;6.50;2.67;;;13.90;99.90;;;;;;4192315;28;20473;-72
2021/09/16 02:44:56;;;;;;;3.80;2.42;;;14.00;99.90;;;;;;4194279;28;20605;-71
2021/09/16 02:46:56;;;;;;;6.53;3.10;;;14.10;99.90;;;;;;4196551;28;20047;-72
2021/09/16 02:48:57;;;;;;;7.53;2.55;;;14.10;99.90;;;;;;4192562;28;20433;-72
2021/09/16 02:50:58;;;;;;;5.30;2.70;;;14.10;99.90;;;;;;4193733;28;20037;-72
2021/09/16 02:52:58;;;;;;;3.20;2.40;;;14.10;99.90;;;;;;4189193;28;20029;-71
2021/09/16 02:54:59;;;;;;;8.93;3.10;;;14.20;99.90;;;;;;4197392;28;20380;-71
2021/09/16 02:56:59;;;;;;;5.43;3.28;;;14.20;99.90;;;;;;4196862;28;20097;-71
2021/09/16 02:59:00;;;;;;;7.47;3.22;;;14.20;99.90;;;;;;4196749;28;20063;-72
2021/09/16 03:01:01;;;;;;;8.23;3.17;;;14.20;99.90;;;;;;4195442;28;20039;-73
2021/09/16 03:03:01;;;;;;;12.68;3.28;;;14.20;99.90;;;;;;4193600;28;20040;-71
2021/09/16 03:05:02;;;;;;;5.38;2.80;;;14.10;99.90;;;;;;4208919;28;20032;-71
2021/09/16 03:07:03;;;;;;;8.82;2.70;;;14.10;99.90;;;;;;4195229;28;20028;-71
2021/09/16 03:09:04;;;;;;;5.45;2.58;;;14.20;99.90;;;;;;4195229;28;20120;-71
2021/09/16 03:11:04;;;;;;;9.70;3.03;;;14.20;99.90;;;;;;4198426;28;20040;-72
2021/09/16 03:13:05;;;;;;;7.10;2.72;;;14.20;99.90;;;;;;4195530;28;20032;-72
2021/09/16 03:15:07;;;;;;;7.07;2.58;;;14.30;99.90;;;;;;4194298;28;20035;-71
2021/09/16 03:17:07;;;;;;;7.25;2.67;;;14.30;99.90;;;;;;4196033;28;20086;-71
2021/09/16 03:19:08;;;;;;;8.88;3.88;;;14.50;99.90;;;;;;4195134;28;20028;-71
2021/09/16 03:21:09;;;;;;;4.70;2.90;;;14.50;99.90;;;;;;4193501;28;20477;-71
2021/09/16 03:23:09;;;;;;;6.57;3.30;;;14.50;99.90;;;;;;4198852;28;20158;-71
2021/09/16 03:25:11;;;;;;;5.90;2.63;;;14.40;99.90;;;;;;4198464;28;20032;-71
2021/09/16 03:27:11;;;;;;;11.65;2.80;;;14.40;99.90;;;;;;4191923;28;20044;-71
2021/09/16 03:29:12;;;;;;;6.30;3.03;;;14.30;99.90;;;;;;4192450;28;20107;-71
2021/09/16 03:31:12;;;;;;;5.28;2.55;;;14.20;99.90;;;;;;4198808;28;20025;-70
2021/09/16 03:33:13;;;;;;;4.82;2.65;;;14.20;99.90;;;;;;4193931;28;20050;-72
2021/09/16 03:35:14;;;;;;;10.02;3.20;;;14.20;99.90;;;;;;4197456;28;20032;-71
2021/09/16 03:37:14;;;;;;;6.85;3.17;;;14.20;99.90;;;;;;4201263;28;20384;-70
2021/09/16 03:39:15;;;;;;;8.93;2.83;;;14.20;99.90;;;;;;4199304;28;20020;-72
2021/09/16 03:41:15;;;;;;;9.60;3.15;;;14.20;99.90;;;;;;4199555;28;20107;-71
2021/09/16 03:43:16;;;;;;;5.07;2.75;;;14.30;99.90;;;;;;4201213;28;20045;-71
2021/09/16 03:45:18;;;;;;;6.03;2.80;;;14.30;99.90;;;;;;4199377;28;20024;-72
2021/09/16 03:47:18;;;;;;;5.70;3.00;;;14.30;99.90;;;;;;4199281;28;20059;-71
2021/09/16 03:49:19;;;;;;;6.75;3.05;;;14.40;99.90;;;;;;4192603;28;20032;-71
2021/09/16 03:51:20;;;;;;;7.07;2.55;;;14.40;99.90;;;;;;4194765;28;20380;-71
2021/09/16 03:53:20;;;;;;;5.80;3.28;;;14.40;99.90;;;;;;4195833;28;20036;-71
2021/09/16 03:55:21;;;;;;;9.18;3.53;;;14.30;99.90;;;;;;4194390;28;20391;-71
2021/09/16 03:57:21;;;;;;;6.53;2.83;;;14.30;99.90;;;;;;4196751;28;20584;-71
2021/09/16 03:59:22;;;;;;;7.30;2.78;;;14.30;99.90;;;;;;4192910;28;20048;-71
2021/09/16 04:01:23;;;;;;;10.20;3.28;;;14.30;99.90;;;;;;4196182;28;20029;-71
2021/09/16 04:03:23;;;;;;;7.85;3.40;;;14.30;99.90;;;;;;4196445;28;20040;-72
2021/09/16 04:05:23;;;;;;;5.28;2.90;;;14.40;99.90;;;;;;4194188;28;20021;-71
2021/09/16 04:07:24;;;;;;;6.13;2.88;;;14.40;99.90;;;;;;4192847;28;20486;-69
2021/09/16 04:09:25;;;;;;;10.25;3.20;;;14.40;99.90;;;;;;4196928;28;20028;-72
2021/09/16 04:11:26;;;;;;;7.00;3.33;;;14.40;99.90;;;;;;4196663;28;20645;-73
2021/09/16 04:13:26;;;;;;;7.93;3.17;;;14.40;99.90;;;;;;4198476;28;20028;-71
2021/09/16 04:15:27;;;;;;;7.32;3.20;;;14.40;99.90;;;;;;4201660;28;20372;-72
2021/09/16 04:17:27;;;;;;;7.72;2.90;;;14.30;99.90;;;;;;4197717;28;20032;-71
2021/09/16 04:19:28;;;;;;;7.32;3.28;;;14.40;99.90;;;;;;4198910;28;20037;-69
2021/09/16 04:21:29;;;;;;;3.75;2.47;;;14.40;99.90;;;;;;4189877;28;20040;-70
2021/09/16 04:23:29;;;;;;;5.80;2.10;;;14.30;99.90;;;;;;4189078;28;20028;-72
2021/09/16 04:25:30;;;;;;;5.47;2.72;;;14.30;99.90;;;;;;4194065;28;20033;-70
2021/09/16 04:27:31;;;;;;;12.82;3.17;;;14.40;99.90;;;;;;4192209;28;20475;-70
2021/09/16 04:29:31;;;;;;;5.78;2.55;;;14.40;99.90;;;;;;4197014;28;20040;-71
2021/09/16 04:31:32;;;;;;;6.03;2.72;;;14.30;99.90;;;;;;4195610;28;20031;-69
2021/09/16 04:33:33;;;;;;;7.68;2.65;;;14.30;99.90;;;;;;4198118;28;20036;-71
2021/09/16 04:35:34;;;;;;;7.85;2.45;;;14.30;99.90;;;;;;4199516;28;20365;-71
2021/09/16 04:37:34;;;;;;;6.72;2.53;;;14.40;99.90;;;;;;4198840;28;20043;-71
2021/09/16 04:39:35;;;;;;;4.95;2.10;;;14.40;99.90;;;;;;4200537;28;20086;-71
2021/09/16 04:41:35;;;;;;;4.65;2.47;;;14.30;99.90;;;;;;4193268;28;20116;-70
2021/09/16 04:43:36;;;;;;;6.13;2.90;;;14.30;99.90;;;;;;4197836;28;20029;-72
2021/09/16 04:45:37;;;;;;;8.25;3.00;;;14.10;99.90;;;;;;4199504;28;20518;-71
2021/09/16 04:47:40;;;;;;;8.13;3.50;;;14.20;99.90;;;;;;4203227;28;20028;-71
2021/09/16 04:49:40;;;;;;;8.85;3.38;;;14.20;99.90;;;;;;4198167;28;20040;-71
2021/09/16 04:51:41;;;;;;;6.63;2.70;;;14.20;99.90;;;;;;4202493;28;20033;-71
2021/09/16 04:53:42;;;;;;;10.60;2.88;;;14.20;99.90;;;;;;4194575;28;20044;-71
2021/09/16 04:55:42;;;;;;;7.22;2.53;;;14.20;99.90;;;;;;4192709;28;20027;-71
2021/09/16 04:57:43;;;;;;;8.25;2.60;;;14.20;99.90;;;;;;4205901;28;20021;-71
2021/09/16 04:59:43;;;;;;;7.55;2.42;;;14.10;99.90;;;;;;4196789;28;20075;-72
2021/09/16 05:01:44;;;;;;;9.55;2.65;;;14.10;99.90;;;;;;4198006;28;20055;-73
2021/09/16 05:03:44;;;;;;;3.97;2.10;;;14.10;99.90;;;;;;4198578;28;20032;-72
2021/09/16 05:05:45;;;;;;;6.53;2.42;;;14.10;99.90;;;;;;4198732;28;20140;-72
2021/09/16 05:07:46;;;;;;;5.70;2.45;;;14.00;99.90;;;;;;4192562;28;20029;-73
2021/09/16 05:09:46;;;;;;;6.00;2.28;;;14.00;99.90;;;;;;4190547;28;20643;-72
2021/09/16 05:11:47;;;;;;;6.25;2.50;;;14.00;99.90;;;;;;4201527;28;20028;-71
2021/09/16 05:13:47;;;;;;;5.25;2.35;;;14.00;99.90;;;;;;4196196;28;20032;-72
2021/09/16 05:15:48;;;;;;;6.13;2.38;;;14.10;99.90;;;;;;4190929;28;20021;-73
2021/09/16 05:17:48;;;;;;;6.25;3.13;;;14.20;99.90;;;;;;4194552;28;20067;-72
2021/09/16 05:19:49;;;;;;;9.98;2.58;;;14.20;99.90;;;;;;4187990;28;20108;-71
2021/09/16 05:21:50;;;;;;;7.28;2.20;;;14.20;99.90;;;;;;4186421;28;20056;-71
2021/09/16 05:23:51;;;;;;;7.65;2.53;;;14.20;99.90;;;;;;4187656;28;20053;-71
2021/09/16 05:25:52;;;;;;;7.90;2.85;;;14.20;99.90;;;;;;4188277;28;20032;-72
2021/09/16 05:27:52;;;;;;;4.18;2.22;;;14.20;99.90;;;;;;4188475;28;20052;-71
2021/09/16 05:29:53;;;;;;;9.68;3.58;;;14.30;99.90;;;;;;4186442;28;20037;-71
2021/09/16 05:31:54;;;;;;;7.60;2.70;;;14.30;99.90;;;;;;4189141;28;20021;-72
2021/09/16 05:33:54;;;;;;;5.07;2.92;;;14.30;99.90;;;;;;4196768;28;20051;-71
2021/09/16 05:35:55;;;;;;;9.15;2.85;;;14.40;99.90;;;;;;4195237;28;20157;-72
2021/09/16 05:37:58;;;;;;;5.25;2.80;;;14.40;99.90;;;;;;4195511;28;20037;-72
2021/09/16 05:39:59;;;;;;;6.45;2.70;;;14.50;99.90;;;;;;4191714;28;20059;-71
2021/09/16 05:41:59;;;;;;;5.18;3.03;;;14.60;99.90;;;;;;4183668;28;20041;-71
2021/09/16 05:44:00;;;;;;;7.10;2.42;;;14.60;99.90;;;;;;4187642;28;20049;-72
2021/09/16 05:46:01;;;;;;;11.20;3.67;;;14.60;99.90;;;;;;4188361;28;20051;-72
2021/09/16 05:48:01;;;;;;;9.88;3.33;;;14.60;99.90;;;;;;4203923;28;20128;-71
2021/09/16 05:50:02;;;;;;;6.95;2.83;;;14.60;99.90;;;;;;4184044;28;20072;-71
2021/09/16 05:52:03;;;;;;;4.70;2.65;;;14.60;99.90;;;;;;4189927;28;20029;-71
2021/09/16 05:54:04;;;;;;;8.55;3.00;;;14.60;99.90;;;;;;4186443;28;20036;-71
2021/09/16 05:56:05;;;;;;;6.22;2.50;;;14.60;99.90;;;;;;4187058;28;20048;-72
2021/09/16 05:58:08;;;;;;;9.57;3.10;;;14.50;99.90;;;;;;4187898;28;20036;-72
2021/09/16 06:00:10;;;;;;;6.07;2.65;;;14.50;99.90;;;;;;4185510;28;20086;-72
2021/09/16 06:02:10;;;;;;;6.53;2.97;;;14.40;99.90;;;;;;4197073;28;20033;-72
2021/09/16 06:04:11;;;;;;;8.85;2.58;;;14.40;99.90;;;;;;4201869;28;20118;-72
2021/09/16 06:06:11;;;;;;;9.15;3.50;;;14.30;99.90;;;;;;4199143;28;20468;-71
2021/09/16 06:08:12;;;;;;;11.52;2.90;;;14.30;99.90;;;;;;4194010;28;20040;-71
2021/09/16 06:10:13;;;;;;;2.70;2.40;;;14.40;99.90;;;;;;4195241;28;20496;-71
2021/09/16 06:12:14;;;;;;;7.25;3.40;;;;;;;;;;4196424;28;20045;-72
2021/09/16 06:14:14;;;;;;;4.03;2.58;;;14.50;99.90;;;;;;4196305;28;20111;-73
2021/09/16 06:16:15;;;;;;;5.18;2.35;;;14.60;99.90;;;;;;4185536;28;20123;-72
2021/09/16 06:18:16;;;;;;;7.93;2.42;;;14.80;99.90;;;;;;4186877;28;20032;-71
2021/09/16 06:20:16;;;;;;;7.18;3.05;;;14.90;99.90;;;;;;4210045;28;20073;-71
2021/09/16 06:22:18;;;;;;;6.30;2.50;;;15.00;99.90;;;;;;4190569;28;20542;-71
2021/09/16 06:24:19;;;;;;;7.22;2.30;;;15.20;99.90;;;;;;4197142;28;20057;-72
2021/09/16 06:26:21;;;;;;;6.28;2.88;;;15.30;99.90;;;;;;4196721;28;20036;-71
2021/09/16 06:28:22;;;;;;;10.90;2.65;;;15.50;99.90;;;;;;4184829;28;20569;-71
2021/09/16 06:30:23;;;;;;;4.75;2.80;;;15.50;99.90;;;;;;4191260;28;20047;-71
2021/09/16 06:32:24;;;;;;;3.97;2.15;;;15.60;99.90;;;;;;4209017;28;20054;-71
2021/09/16 06:34:25;;;;;;;5.75;2.30;;;15.70;99.90;;;;;;4210668;28;20028;-71
2021/09/16 06:36:26;;;;;;;3.22;2.20;;;15.70;99.90;;;;;;4196624;28;20484;-72
2021/09/16 06:38:26;;;;;;;7.93;2.60;;;15.80;99.90;;;;;;4185254;28;20040;-71
2021/09/16 06:40:27;;;;;;;5.57;2.17;;;15.90;99.90;;;;;;4205300;28;20040;-71
2021/09/16 06:42:28;;;;;;;5.03;2.63;;;16.00;99.90;;;;;;4191703;28;20025;-71
2021/09/16 06:44:28;;;;;;;5.55;3.17;;;16.10;99.90;;;;;;4184639;28;20097;-71
2021/09/16 06:46:31;;;;;;;7.97;2.45;;;16.10;99.90;;;;;;4181603;28;20120;-71
2021/09/16 06:48:31;;;;;;;5.55;2.55;;;16.10;99.90;;;;;;4201208;28;20028;-70
2021/09/16 06:50:32;;;;;;;6.20;2.97;;;16.10;99.90;;;;;;4207960;28;20541;-70
2021/09/16 06:52:32;;;;;;;3.10;2.22;;;16.20;99.90;;;;;;4208457;28;20093;-70
2021/09/16 06:54:33;;;;;;;5.18;2.25;;;16.30;99.90;;;;;;4193952;28;20420;-70
2021/09/16 06:56:33;;;;;;;4.18;2.85;;;16.30;99.90;;;;;;4193107;28;20040;-71
2021/09/16 06:58:34;;;;;;;7.35;2.90;;;16.30;99.90;;;;;;4180788;28;20029;-72
2021/09/16 07:00:34;;;;;;;7.68;2.53;;;16.30;99.90;;;;;;4193267;28;20067;-71
2021/09/16 07:02:36;;;;;;;5.63;2.17;;;16.40;99.90;;;;;;4186649;28;20489;-72
2021/09/16 07:04:37;;;;;;;5.82;3.03;;;16.50;99.90;;;;;;4180652;28;20021;-71
2021/09/16 07:06:38;;;;;;;9.70;2.92;;;16.50;99.90;;;;;;4187830;28;20040;-72
2021/09/16 07:08:39;;;;;;;5.10;2.17;;;16.60;99.90;;;;;;4188253;28;20037;-72
2021/09/16 07:10:41;;;;;;;5.40;2.58;;;16.60;99.90;;;;;;4183405;28;20098;-72
2021/09/16 07:12:42;;;;;;;9.27;2.80;;;16.70;99.90;;;;;;4196279;28;20054;-71
2021/09/16 07:14:43;;;;;;;9.13;2.42;;;16.70;99.90;;;;;;4198951;28;20040;-72
2021/09/16 07:16:43;;;;;;;6.32;2.60;;;16.80;99.90;;;;;;4196756;28;20028;-72
2021/09/16 07:18:44;;;;;;;7.88;3.03;;;16.80;99.90;;;;;;4192085;28;20116;-71
2021/09/16 07:20:45;;;;;;;6.53;2.50;;;16.90;99.90;;;;;;4189862;28;20473;-72
2021/09/16 07:22:45;;;;;;;8.15;3.25;;;17.00;99.90;;;;;;4193650;28;20115;-70
2021/09/16 07:24:46;;;;;;;7.85;2.83;;;17.10;99.90;;;;;;4195519;28;20157;-71
2021/09/16 07:26:50;;;;;;;5.85;2.45;;;17.30;99.90;;;;;;4194910;28;20040;-70
2021/09/16 07:28:51;;;;;;;11.90;2.72;;;17.40;99.90;;;;;;4196481;28;20036;-71
2021/09/16 07:30:51;;;;;;;4.15;2.42;;;17.40;99.90;;;;;;4195171;28;20120;-71
2021/09/16 07:32:52;;;;;;;7.53;2.40;;;17.50;99.90;;;;;;4192742;28;20056;-71
2021/09/16 07:34:52;;;;;;;10.00;2.78;;;17.50;99.90;;;;;;4196002;28;20054;-72
2021/09/16 07:36:53;;;;;;;7.05;2.33;;;17.40;99.90;;;;;;4191831;28;20036;-72
2021/09/16 07:38:54;;;;;;;4.30;2.70;;;17.30;99.90;;;;;;4195336;28;20173;-72
2021/09/16 07:40:54;;;;;;;5.30;2.22;;;17.20;99.90;;;;;;4189583;28;20119;-71
2021/09/16 07:42:55;;;;;;;5.82;2.45;;;17.00;99.90;;;;;;4194034;28;20033;-71
2021/09/16 07:44:56;;;;;;;9.05;2.63;;;16.80;99.90;;;;;;4201210;28;20059;-71
2021/09/16 07:46:56;;;;;;;4.75;2.75;;;16.60;99.90;;;;;;4206295;28;20059;-71
2021/09/16 07:48:58;;;;;;;8.93;2.78;;;16.50;99.90;;;;;;4180304;28;20418;-71
2021/09/16 07:50:59;;;;;;;7.72;2.67;;;16.40;99.90;;;;;;4184997;28;20043;-71
2021/09/16 07:52:59;;;;;;;5.78;2.97;;;16.40;99.90;;;;;;4194639;28;20495;-71
2021/09/16 07:55:00;;;;;;;5.72;2.40;;;16.40;99.90;;;;;;4195252;28;20027;-72
2021/09/16 07:57:00;;;;;;;5.93;2.58;;;16.40;99.90;;;;;;4193385;28;20085;-71
2021/09/16 07:59:01;;;;;;;4.60;2.38;;;16.40;99.90;;;;;;4196093;28;20051;-70
2021/09/16 08:01:02;;;;;;;8.90;3.00;;;16.40;99.90;;;;;;4210987;28;20051;-72
2021/09/16 08:03:02;;;;;;;7.13;2.67;;;16.50;99.90;;;;;;4202899;28;20112;-71
2021/09/16 08:05:03;;;;;;;8.10;3.42;;;16.50;99.90;;;;;;4199218;28;20033;-72
2021/09/16 08:07:04;;;;;;;7.65;2.78;;;16.50;99.90;;;;;;4182440;28;20032;-72
2021/09/16 08:09:05;;;;;;;8.50;3.13;;;16.60;99.90;;;;;;4204115;28;20032;-71
2021/09/16 08:11:05;;;;;;;7.78;2.70;;;16.60;99.90;;;;;;4192292;28;20064;-70
2021/09/16 08:13:06;;;;;;;6.72;2.47;;;16.70;99.90;;;;;;4195898;28;20409;-72
2021/09/16 08:15:08;;;;;;;7.55;2.85;;;16.80;99.90;;;;;;4192385;28;20082;-70
2021/09/16 08:17:08;;;;;;;5.93;3.10;;;16.90;99.90;;;;;;4192600;28;20111;-70
2021/09/16 08:19:09;;;;;;;9.30;2.67;;;16.90;99.90;;;;;;4193224;28;20504;-70
2021/09/16 08:21:12;;;;;;;6.90;2.38;;;17.10;99.90;;;;;;4187726;28;20021;-71
2021/09/16 08:23:13;;;;;;;5.35;2.83;;;17.20;99.90;;;;;;4188211;28;20461;-72
2021/09/16 08:25:15;;;;;;;5.18;2.55;;;17.20;99.90;;;;;;4189090;28;20029;-72
2021/09/16 08:27:15;;;;;;;8.00;3.60;;;17.30;99.90;;;;;;4185327;28;20492;-71
2021/09/16 08:29:16;;;;;;;5.95;2.92;;;17.50;99.90;;;;;;4191959;28;20028;-71
2021/09/16 08:31:17;;;;;;;8.35;3.58;;;17.70;99.90;;;;;;4193607;28;20037;-71
2021/09/16 08:33:20;;;;;;;5.25;2.25;;;17.90;99.90;;;;;;4212943;28;20447;-70
2021/09/16 08:35:21;;;;;;;6.53;2.55;;;18.10;99.90;;;;;;4199653;28;20033;-71
2021/09/16 08:37:21;;;;;;;7.28;2.35;;;18.30;99.90;;;;;;4194019;28;20041;-70
2021/09/16 08:39:22;;;;;;;3.75;2.40;;;18.40;99.90;;;;;;4204567;28;20024;-71
2021/09/16 08:41:23;;;;;;;4.35;2.30;;;18.60;99.90;;;;;;4204994;28;20032;-71
2021/09/16 08:43:29;;;;;;;6.45;2.40;;;18.60;99.90;;;;;;4202933;28;20125;-71
2021/09/16 08:45:30;;;;;;;4.22;2.38;;;18.50;99.90;;;;;;4211071;28;20043;-72
2021/09/16 08:47:31;;;;;;;6.43;1.92;;;18.50;99.90;;;;;;4182636;28;20504;-71
2021/09/16 08:49:32;;;;;;;3.70;2.17;;;18.50;99.90;;;;;;4185979;28;20392;-72
2021/09/16 08:51:33;;;;;;;4.78;2.25;;;18.60;99.90;;;;;;4182885;28;20108;-72
2021/09/16 08:53:34;;;;;;;7.15;2.63;;;18.70;99.90;;;;;;4184613;28;20025;-72
2021/09/16 08:55:35;;;;;;;7.30;2.80;;;18.70;99.90;;;;;;4198361;28;20078;-72
2021/09/16 08:57:42;;;;;;;5.78;2.40;;;18.80;99.90;;;;;;4208468;28;20088;-72
2021/09/16 08:59:44;;;;;;;6.28;2.50;;;18.80;99.90;;;;;;4179392;28;20110;-71
2021/09/16 09:01:46;;;;;;;7.75;2.70;;;19.00;99.90;;;;;;4197184;28;20028;-71
2021/09/16 09:03:47;;;;;;;5.40;2.45;;;19.10;99.90;;;;;;4195701;28;20120;-72
2021/09/16 09:05:47;;;;;;;7.72;2.20;;;19.30;99.90;;;;;;4180527;28;20030;-71
2021/09/16 09:07:51;;;;;;;2.75;2.13;;;19.40;99.90;;;;;;4193853;28;20029;-71
2021/09/16 09:09:52;;;;;;;3.78;2.35;;;19.50;99.90;;;;;;4186181;28;20152;-71
2021/09/16 09:12:12;;;;;;;4.15;2.33;;;19.60;99.90;;;;;;4183257;28;20564;-71
2021/09/16 09:14:17;;;;;;;7.40;3.05;;;19.80;99.90;;;;;;4193261;28;20090;-71
2021/09/16 09:16:18;;;;;;;4.00;2.25;;;19.90;99.90;;;;;;4201773;28;20476;-69
2021/09/16 09:18:19;;;;;;;5.38;2.13;;;20.00;99.90;;;;;;4212472;28;20060;-71
2021/09/16 09:20:20;;;;;;;4.18;2.75;;;20.20;99.90;;;;;;4209169;28;20063;-71
2021/09/16 09:22:29;;;;;;;8.70;3.03;;;20.30;99.90;;;;;;4192400;28;20485;-70
2021/09/16 09:24:41;;;;;;;6.57;2.30;;;20.30;99.90;;;;;;4185103;28;20037;-70
2021/09/16 09:26:41;;;;;;;6.32;2.42;;;20.50;99.90;;;;;;4180843;28;20037;-70
2021/09/16 09:28:42;;;;;;;5.75;2.20;;;20.50;99.90;;;;;;4187156;28;20112;-71
2021/09/16 09:30:43;;;;;;;7.32;2.17;;;20.80;99.90;;;;;;4187793;28;20037;-71
2021/09/16 09:33:00;;;;;;;4.22;2.28;;;21.00;99.90;;;;;;4179850;28;20036;-71
2021/09/16 09:35:00;;;;;;;9.20;2.95;;;21.20;99.90;;;;;;4186016;28;20675;-72
2021/09/16 09:37:14;;;;;;;10.82;2.47;;;21.40;99.90;;;;;;4193656;28;20120;-71
2021/09/16 09:39:15;;;;;;;4.85;2.55;;;21.30;99.90;;;;;;4197338;28;20040;-71
2021/09/16 09:41:31;;;;;;;6.05;2.50;;;21.30;99.90;;;;;;4182461;28;20039;-71
2021/09/16 09:43:34;;;;;;;7.57;2.38;;;21.60;99.90;;;;;;4187857;28;20037;-70
2021/09/16 09:45:55;;;;;;;4.82;2.42;;;21.50;99.90;;;;;;4189373;28;20029;-71
2021/09/16 09:47:56;;;;;;;6.45;2.05;;;21.30;99.90;;;;;;4196923;28;20040;-71
2021/09/16 09:49:57;;;;;;;4.00;2.20;;;21.00;99.90;;;;;;4184808;28;20498;-71
2021/09/16 09:51:59;;;;;;;4.35;2.22;;;21.00;99.90;;;;;;4191048;28;20033;-71
2021/09/16 09:54:22;;;;;;;5.15;2.20;;;21.30;99.90;;;;;;4191058;28;20024;-72
2021/09/16 09:56:23;;;;;;;;;;;21.40;99.90;;;;;;4190386;28;20097;-71
2021/09/16 09:58:35;;;;;;;3.15;2.05;;;21.60;99.90;;;;;;4185971;28;19925;-71
2021/09/16 10:00:36;;;;;;;3.58;2.15;;;21.80;99.90;;;;;;4189855;28;20100;-71
2021/09/16 10:02:53;;;;;;;6.68;2.92;;;22.00;99.90;;;;;;4183942;28;20040;-71
2021/09/16 10:04:54;;;;;;;4.43;2.65;;;21.90;99.90;;;;;;4195562;28;20349;-71
2021/09/16 10:06:55;;;;;;;4.00;2.28;;;22.10;99.90;;;;;;4197262;28;20028;-71
2021/09/16 10:09:09;;;;;;;5.80;2.10;;;22.30;99.90;;;;;;4188792;28;20024;-70
2021/09/16 10:11:09;;;;;;;6.55;2.22;;;22.60;99.90;;;;;;4196158;28;20077;-71
2021/09/16 10:13:19;;;;;;;6.35;3.40;;;23.00;99.90;;;;;;4194187;28;20155;-71
2021/09/16 10:15:22;;;;;;;6.20;2.13;;;22.80;99.90;;;;;;4192092;28;20078;-70
2021/09/16 10:17:23;;;;;;;2.05;1.80;;;23.00;99.90;;;;;;4197996;28;20051;-70
2021/09/16 10:19:24;;;;;;;5.13;2.13;;;22.80;99.90;;;;;;4193684;28;20051;-71
2021/09/16 10:21:24;;;;;;;5.65;2.60;;;22.90;99.90;;;;;;4196963;28;20044;-71
2021/09/16 10:23:26;;;;;;;5.57;2.60;;;23.10;99.90;;;;;;4193344;28;20105;-71
2021/09/16 10:25:28;;;;;;;6.60;2.50;;;23.40;99.90;;;;;;4193681;28;20083;-71
2021/09/16 10:27:34;;;;;;;2.83;1.98;;;23.80;99.90;;;;;;4201096;28;20036;-71
2021/09/16 10:29:36;;;;;;;6.90;2.22;;;24.10;99.90;;;;;;4196572;28;20035;-70
2021/09/16 10:31:36;;;;;;;5.03;1.90;;;24.30;99.90;;;;;;4214157;28;20490;-71